Time;durP1;ratioP1;P1;durP2;ratioP2;P2;SDS_P1;SDS_P2;PMS_P1;PMS_P2;Temp;Humidity;BMP_temperature;BMP_pressure;BME280_temperature;BME280_humidity;BME280_pressure;Samples;Min_cycle;Max_cycle;Signal;HPM_P1;HPM_P2
2022/02/13 00:01:09;;;;;;;;;;;;;;;2.05;71.68;100197.47;4927400;29;19934;-84
2022/02/13 00:03:34;;;;;;;;;;;;;;;2.06;72.22;100199.19;4946386;29;19919;-84
2022/02/13 00:06:00;;;;;;;;;;;;;;;2.04;72.70;100195.69;4946530;29;20293;-84
2022/02/13 00:08:25;;;;;;;;;;;;;;;2.03;72.82;100189.63;4945989;29;19923;-84
2022/02/13 00:10:50;;;;;;;;;;;;;;;2.06;72.81;100186.09;4944594;28;19937;-84
2022/02/13 00:13:15;;;;;;;;;;;;;;;2.05;72.82;100179.16;4940644;28;19929;-84
2022/02/13 00:15:40;;;;;;;;;;;;;;;2.03;72.68;100180.88;4945644;29;19969;-83
2022/02/13 00:18:06;;;;;;;;;;;;;;;2.03;72.49;100184.38;4945146;29;20327;-84
2022/02/13 00:20:31;;;;;;;;;;;;;;;2.05;72.36;100185.25;4946069;29;19923;-83
2022/02/13 00:22:56;;;;;;;;;;;;;;;2.05;72.25;100189.63;4944374;29;19922;-84
2022/02/13 00:25:22;;;;;;;;;;;;;;;2.06;72.21;100181.78;4945941;29;19922;-84
2022/02/13 00:27:47;;;;;;;;;;;;;;;2.08;72.46;100174.78;4945786;29;19922;-84
2022/02/13 00:30:14;;;;;;;;;;;;;;;2.13;73.00;100173.03;4944667;29;19929;-83
2022/02/13 00:32:40;;;;;;;;;;;;;;;2.12;73.19;100170.41;4944904;29;19926;-84
2022/02/13 00:35:05;;;;;;;;;;;;;;;2.14;73.35;100171.31;4945723;29;20354;-83
2022/02/13 00:37:31;;;;;;;;;;;;;;;2.16;73.62;100180.88;4945230;29;19933;-84
2022/02/13 00:39:56;;;;;;;;;;;;;;;2.20;73.58;100183.47;4942908;29;19923;-83
2022/02/13 00:42:21;;;;;;;;;;;;;;;2.14;73.31;100180.00;4943033;29;19931;-83
2022/02/13 00:44:46;;;;;;;;;;;;;;;2.15;73.27;100176.53;4923261;29;19923;-84
2022/02/13 04:22:43;;;;;;;;;;;;;;;2.65;94.29;100020.22;5496741;23;20463;-83
2022/02/13 04:25:08;;;;;;;;;;;;;;;2.64;94.04;100023.72;4952826;29;20009;-84
2022/02/13 04:27:37;;;;;;;;;;;;;;;2.53;93.41;100022.91;4955135;29;19922;-83
2022/02/13 04:30:03;;;;;;;;;;;;;;;2.44;93.28;100030.81;4955377;29;20003;-84
2022/02/13 04:32:28;;;;;;;;;;;;;;;2.43;92.99;100019.50;4954749;29;19925;-84
2022/02/13 04:34:54;;;;;;;;;;;;;;;2.47;92.74;100017.72;4937731;29;20013;-84
2022/02/13 04:37:19;;;;;;;;;;;;;;;2.40;92.12;100013.44;4920763;29;19974;-84
2022/02/13 04:39:44;;;;;;;;;;;;;;;2.33;91.69;100016.06;4955343;29;20389;-84
2022/02/13 04:42:10;;;;;;;;;;;;;;;2.24;91.22;100010.88;4954938;29;19922;-84
2022/02/13 04:44:36;;;;;;;;;;;;;;;2.22;90.91;100010.03;4955304;29;19918;-84
2022/02/13 04:47:01;;;;;;;;;;;;;;;2.24;90.37;99999.56;4937502;29;20001;-84
2022/02/13 04:49:26;;;;;;;;;;;;;;;2.15;89.86;99995.25;4955124;29;19942;-84
2022/02/13 04:51:52;;;;;;;;;;;;;;;2.11;89.42;99997.00;4953667;29;19914;-84
2022/02/13 04:54:17;;;;;;;;;;;;;;;2.05;89.15;99998.78;4937565;29;19919;-84
2022/02/13 04:56:42;;;;;;;;;;;;;;;2.05;88.68;99996.16;4954956;29;20013;-83
2022/02/13 04:59:09;;;;;;;;;;;;;;;2.05;88.00;99993.56;4937313;29;19915;-83
2022/02/13 05:01:35;;;;;;;;;;;;;;;2.06;87.54;99995.28;4954873;29;19926;-82
2022/02/13 05:04:00;;;;;;;;;;;;;;;1.95;87.09;99995.34;4954760;29;19985;-83
2022/02/13 05:06:26;;;;;;;;;;;;;;;1.93;86.44;99984.00;4953522;29;19929;-83
2022/02/13 05:08:53;;;;;;;;;;;;;;;2.06;89.10;99969.13;4954718;29;19919;-83
2022/02/13 05:11:18;;;;;;;;;;;;;;;2.18;92.23;99966.47;4954080;29;20290;-85
2022/02/13 05:13:44;;;;;;;;;;;;;;;2.22;93.22;99964.69;4954632;29;19918;-85
2022/02/13 05:16:09;;;;;;;;;;;;;;;2.13;93.10;99965.63;4954695;29;19929;-86
2022/02/13 05:18:35;;;;;;;;;;;;;;;2.15;93.08;99956.03;4936902;29;20009;-85
2022/02/13 05:21:00;;;;;;;;;;;;;;;2.11;92.94;99952.56;4954419;29;19922;-87
2022/02/13 05:23:25;;;;;;;;;;;;;;;2.05;92.62;99947.38;4953055;29;19922;-87
2022/02/13 05:25:50;;;;;;;;;;;;;;;2.03;92.58;99935.16;4936902;29;19926;-87
2022/02/13 05:28:16;;;;;;;;;;;;;;;1.91;92.18;99936.97;4954297;29;20326;-86
2022/02/13 05:30:41;;;;;;;;;;;;;;;1.85;91.91;99942.25;4953892;28;19926;-86
2022/02/13 05:33:06;;;;;;;;;;;;;;;1.79;91.76;99950.97;4952979;29;20009;-86
2022/02/13 05:35:31;;;;;;;;;;;;;;;1.84;91.36;99943.13;4936763;29;19923;-85
2022/02/13 05:37:56;;;;;;;;;;;;;;;1.79;90.81;99937.06;4952776;29;19926;-86
2022/02/13 05:40:22;;;;;;;;;;;;;;;1.78;90.54;99930.94;4954223;29;19958;-85
2022/02/13 05:42:47;;;;;;;;;;;;;;;1.77;89.92;99936.19;4954066;29;19926;-85
2022/02/13 05:45:13;;;;;;;;;;;;;;;1.73;89.62;99932.72;4954066;29;19985;-86
2022/02/13 05:47:38;;;;;;;;;;;;;;;1.76;89.16;99934.47;4954186;29;20430;-86
2022/02/13 13:57:08;;;;;;;;;;;;;;;4.33;100.00;99301.50;5118550;23;19951;-81
2022/02/13 13:59:33;;;;;;;;;;;;;;;4.39;100.00;99295.22;4914842;29;19927;-81
2022/02/13 14:01:59;;;;;;;;;;;;;;;4.38;100.00;99289.13;4915251;29;19976;-81
2022/02/13 14:04:24;;;;;;;;;;;;;;;4.38;100.00;99285.66;4915669;29;20287;-82
2022/02/13 14:06:49;;;;;;;;;;;;;;;4.35;100.00;99276.09;4915443;29;19923;-81
2022/02/13 14:09:14;;;;;;;;;;;;;;;4.51;100.00;99280.03;4916804;29;19923;-81
2022/02/13 14:11:41;;;;;;;;;;;;;;;4.50;100.00;99273.06;4897782;29;19938;-81
2022/02/13 14:14:07;;;;;;;;;;;;;;;4.54;100.00;99273.84;4915498;29;19967;-81
2022/02/13 14:16:32;;;;;;;;;;;;;;;4.51;100.00;99272.16;4898175;29;19923;-81
2022/02/13 14:18:57;;;;;;;;;;;;;;;4.52;100.00;99258.16;4915652;29;20268;-81
2022/02/13 14:21:23;;;;;;;;;;;;;;;4.64;100.00;99258.72;4915589;29;19923;-81
2022/02/13 14:23:48;;;;;;;;;;;;;;;4.60;100.00;99252.69;4915677;29;19927;-81
2022/02/13 14:26:14;;;;;;;;;;;;;;;4.31;100.00;99251.69;4914342;29;19923;-81
2022/02/13 14:28:39;;;;;;;;;;;;;;;3.61;100.00;99255.13;4915060;29;20374;-81
2022/02/13 14:31:04;;;;;;;;;;;;;;;3.28;100.00;99248.91;4914871;29;19958;-81
2022/02/13 14:33:30;;;;;;;;;;;;;;;3.26;100.00;99245.47;4915444;29;20401;-81
2022/02/13 14:35:55;;;;;;;;;;;;;;;3.20;100.00;99245.59;4915516;29;19919;-81
2022/02/13 14:38:21;;;;;;;;;;;;;;;3.09;100.00;99230.97;4915553;29;19923;-81
2022/02/13 14:40:46;;;;;;;;;;;;;;;3.02;98.83;99234.59;4897058;29;19919;-81
2022/02/13 14:43:11;;;;;;;;;;;;;;;2.97;98.15;99231.22;4915429;29;19924;-81
2022/02/13 14:45:36;;;;;;;;;;;;;;;2.87;97.37;99229.69;4915243;29;20062;-81
2022/02/13 14:48:03;;;;;;;;;;;;;;;2.85;97.07;99221.84;4915478;29;19925;-81
2022/02/13 14:50:31;;;;;;;;;;;;;;;2.85;96.59;99214.00;4898234;29;19920;-81
2022/02/13 14:52:56;;;;;;;;;;;;;;;2.83;95.99;99214.94;4915379;29;19915;-82
2022/02/13 14:55:21;;;;;;;;;;;;;;;2.79;95.54;99205.44;4897177;29;20859;-81
2022/02/13 14:57:47;;;;;;;;;;;;;;;2.67;95.28;99202.16;4915121;29;19923;-81
2022/02/13 15:00:13;;;;;;;;;;;;;;;2.63;94.98;99199.63;4915412;29;19990;-81
2022/02/13 15:02:38;;;;;;;;;;;;;;;2.60;94.62;99195.34;4915068;29;19919;-82
2022/02/13 15:05:04;;;;;;;;;;;;;;;2.73;93.79;99194.19;4918256;29;19971;-81
2022/02/13 15:07:29;;;;;;;;;;;;;;;2.77;93.29;99197.59;4918644;29;19915;-81
2022/02/13 15:09:54;;;;;;;;;;;;;;;2.65;92.77;99190.88;4918800;29;19986;-81
2022/02/13 15:12:20;;;;;;;;;;;;;;;2.61;91.74;99188.34;4917295;29;19919;-82
2022/02/13 15:14:47;;;;;;;;;;;;;;;2.50;91.61;99183.31;4918566;29;19929;-81
2022/02/13 15:17:12;;;;;;;;;;;;;;;2.70;91.05;99181.19;4917817;29;20302;-81
2022/02/13 15:19:37;;;;;;;;;;;;;;;2.77;90.09;99176.69;4918412;29;19919;-81
2022/02/13 15:22:02;;;;;;;;;;;;;;;2.59;89.59;99182.31;4917674;29;20375;-81
2022/02/13 15:24:28;;;;;;;;;;;;;;;2.41;89.58;99173.91;4918451;29;20363;-82
2022/02/13 15:26:53;;;;;;;;;;;;;;;2.55;89.63;99168.41;4917281;29;19919;-81
2022/02/13 15:29:19;;;;;;;;;;;;;;;2.61;89.03;99164.81;4918705;29;19966;-82
2022/02/13 15:31:44;;;;;;;;;;;;;;;2.56;88.70;99164.06;4918461;29;19916;-81
2022/02/13 15:34:10;;;;;;;;;;;;;;;2.55;88.35;99165.78;4918385;29;19978;-81
2022/02/13 15:36:35;;;;;;;;;;;;;;;2.34;88.12;99152.25;4918383;29;19923;-81
2022/02/13 15:39:00;;;;;;;;;;;;;;;2.29;88.22;99145.38;4918331;29;19980;-82
2022/02/13 15:41:27;;;;;;;;;;;;;;;2.41;88.24;99145.16;4900069;29;20014;-81
2022/02/13 15:43:52;;;;;;;;;;;;;;;2.46;87.39;99132.00;4918249;29;19919;-81
2022/02/13 15:46:17;;;;;;;;;;;;;;;2.42;86.99;99127.72;4918252;29;19927;-81
2022/02/13 15:48:42;;;;;;;;;;;;;;;2.37;87.20;99135.63;4918314;29;19966;-82
2022/02/13 15:51:08;;;;;;;;;;;;;;;2.33;86.82;99124.38;4901195;29;19926;-81
2022/02/13 15:53:33;;;;;;;;;;;;;;;2.29;86.93;99127.94;4917705;29;20437;-81
2022/02/13 15:55:58;;;;;;;;;;;;;;;2.36;86.55;99113.88;4916765;29;19919;-81
2022/02/13 15:58:23;;;;;;;;;;;;;;;2.35;86.62;99111.28;4917847;29;20390;-81
2022/02/13 16:00:49;;;;;;;;;;;;;;;2.23;86.52;99112.38;4917887;29;20355;-81
2022/02/13 16:03:14;;;;;;;;;;;;;;;2.28;86.62;99110.56;4917498;29;19927;-81
2022/02/13 16:05:39;;;;;;;;;;;;;;;2.16;86.69;99103.78;4917149;29;19926;-81
2022/02/13 16:08:04;;;;;;;;;;;;;;;2.16;86.72;99106.41;4917843;29;19965;-81
2022/02/13 16:10:30;;;;;;;;;;;;;;;2.18;86.42;99106.38;4916440;29;19927;-81
2022/02/13 16:12:55;;;;;;;;;;;;;;;2.10;86.23;99101.28;4900440;29;20263;-81
2022/02/13 16:15:20;;;;;;;;;;;;;;;2.21;86.27;99090.63;4917010;29;19950;-81
2022/02/13 16:17:46;;;;;;;;;;;;;;;2.09;86.51;99088.25;4917414;29;20359;-81
2022/02/13 16:20:12;;;;;;;;;;;;;;;2.02;86.24;99089.28;4917449;29;20504;-81
2022/02/13 16:22:37;;;;;;;;;;;;;;;2.05;86.49;99084.00;4916742;29;19926;-81
2022/02/13 16:25:03;;;;;;;;;;;;;;;2.07;86.34;99084.81;4917413;29;19923;-81
2022/02/13 16:27:28;;;;;;;;;;;;;;;2.09;86.12;99077.81;4916410;29;20382;-81
2022/02/13 16:29:54;;;;;;;;;;;;;;;2.09;86.26;99072.56;4917446;29;19951;-81
2022/02/13 16:32:19;;;;;;;;;;;;;;;2.00;86.18;99079.72;4917241;29;19923;-81
2022/02/13 16:34:48;;;;;;;;;;;;;;;2.00;86.44;99069.25;4916196;29;20461;-81
2022/02/13 16:37:15;;;;;;;;;;;;;;;2.04;86.24;99074.44;4917025;29;19923;-82
2022/02/13 16:39:40;;;;;;;;;;;;;;;2.03;86.00;99062.25;4917112;29;19930;-81
2022/02/13 16:42:06;;;;;;;;;;;;;;;1.94;85.75;99060.69;4898831;29;19923;-81
2022/02/13 16:44:31;;;;;;;;;;;;;;;2.02;85.71;99065.75;4917205;29;19987;-81
2022/02/13 16:46:56;;;;;;;;;;;;;;;2.02;85.63;99055.31;4916775;29;19919;-81
2022/02/13 16:49:22;;;;;;;;;;;;;;;2.02;85.47;99052.69;4916974;29;19930;-81
2022/02/13 16:51:47;;;;;;;;;;;;;;;1.89;85.24;99046.84;4916879;29;19919;-81
2022/02/13 16:54:13;;;;;;;;;;;;;;;1.99;85.42;99053.59;4916723;29;19941;-81
2022/02/13 16:56:40;;;;;;;;;;;;;;;1.97;85.26;99048.41;4916792;29;19923;-81
2022/02/13 16:59:05;;;;;;;;;;;;;;;1.95;85.07;99039.75;4916363;29;19977;-81
2022/02/13 17:01:31;;;;;;;;;;;;;;;1.86;84.76;99050.38;4916878;29;19927;-81
2022/02/13 17:03:57;;;;;;;;;;;;;;;1.97;84.82;99043.19;5028197;23;20347;-81
2022/02/13 17:06:23;;;;;;;;;;;;;;;2.04;84.56;99040.44;4926980;29;19956;-81
2022/02/13 17:08:48;;;;;;;;;;;;;;;1.95;84.39;99031.06;4909152;29;19969;-81
2022/02/13 17:11:14;;;;;;;;;;;;;;;1.97;84.01;99035.34;4924984;29;19923;-81
2022/02/13 17:13:39;;;;;;;;;;;;;;;1.96;84.20;99024.91;4925908;29;19964;-81
2022/02/13 17:16:05;;;;;;;;;;;;;;;1.91;84.13;99024.16;4925764;29;19919;-81
2022/02/13 17:18:32;;;;;;;;;;;;;;;1.90;84.08;99025.91;4926377;29;20286;-81
2022/02/13 17:20:57;;;;;;;;;;;;;;;1.89;83.83;99021.56;4927045;29;19923;-81
2022/02/13 17:23:22;;;;;;;;;;;;;;;1.88;83.55;99027.69;4927035;29;19989;-81
2022/02/13 17:25:48;;;;;;;;;;;;;;;1.93;83.22;99015.41;4924443;29;20260;-81
2022/02/13 17:28:14;;;;;;;;;;;;;;;1.94;83.31;99017.09;4926239;29;20025;-80
2022/02/13 17:30:40;;;;;;;;;;;;;;;1.86;83.46;99012.94;4926015;29;19923;-81
2022/02/13 17:33:06;;;;;;;;;;;;;;;1.92;83.47;99005.84;4926391;29;20326;-81
2022/02/13 17:35:32;;;;;;;;;;;;;;;2.00;83.07;99008.31;4927027;29;20381;-81
2022/02/13 17:37:57;;;;;;;;;;;;;;;1.88;83.11;99001.56;4926900;29;20013;-81
2022/02/13 17:40:23;;;;;;;;;;;;;;;1.91;83.00;99001.50;4924394;29;20285;-81
2022/02/13 17:42:48;;;;;;;;;;;;;;;1.90;82.64;99001.53;4926692;29;19926;-81
2022/02/13 17:45:14;;;;;;;;;;;;;;;1.92;82.56;98995.38;4926062;29;19925;-81
2022/02/13 17:47:40;;;;;;;;;;;;;;;1.92;82.34;98998.00;4925443;29;19919;-81
2022/02/13 17:50:06;;;;;;;;;;;;;;;1.91;82.16;98988.44;4924980;29;19926;-81
2022/02/13 17:52:31;;;;;;;;;;;;;;;1.93;82.31;98986.66;4926398;29;19919;-81
2022/02/13 17:55:00;;;;;;;;;;;;;;;1.81;82.24;98985.16;4927154;29;19987;-81
2022/02/13 17:57:27;;;;;;;;;;;;;;;1.90;82.28;98985.84;4924861;29;19922;-81
2022/02/13 17:59:53;;;;;;;;;;;;;;;1.91;82.21;98980.59;4925292;29;19919;-81
2022/02/13 18:02:18;;;;;;;;;;;;;;;1.82;82.30;98980.81;4925988;29;20021;-80
2022/02/13 18:04:43;;;;;;;;;;;;;;;1.78;81.88;98974.75;4925580;29;20319;-81
2022/02/13 18:07:09;;;;;;;;;;;;;;;1.83;82.08;98969.44;4925790;29;19922;-81
2022/02/13 18:09:35;;;;;;;;;;;;;;;1.75;82.13;98969.59;4923756;29;19954;-82
2022/02/13 18:12:00;;;;;;;;;;;;;;;1.88;81.75;98967.59;4922879;29;19931;-81
2022/02/13 18:14:25;;;;;;;;;;;;;;;1.71;81.93;98962.72;4930253;29;19923;-82
2022/02/13 18:16:50;;;;;;;;;;;;;;;1.68;81.80;98954.09;4924939;29;19965;-80
2022/02/13 18:19:15;;;;;;;;;;;;;;;1.78;81.86;98943.41;4924635;29;19923;-81
2022/02/13 18:21:41;;;;;;;;;;;;;;;1.80;81.89;98951.22;4924660;29;19923;-81
2022/02/13 18:24:06;;;;;;;;;;;;;;;1.75;81.62;98947.84;4924894;29;19989;-80
2022/02/13 18:26:31;;;;;;;;;;;;;;;1.81;81.63;98947.72;4923990;29;19954;-81
2022/02/13 18:28:57;;;;;;;;;;;;;;;1.81;81.70;98959.03;4924857;29;19961;-81
2022/02/13 18:31:22;;;;;;;;;;;;;;;1.81;81.78;98952.94;4925160;29;19927;-80
2022/02/13 18:33:47;;;;;;;;;;;;;;;1.79;81.46;98952.13;4925865;29;20455;-80
2022/02/13 18:36:12;;;;;;;;;;;;;;;1.84;81.12;98939.81;4925474;29;19919;-81
2022/02/13 18:38:38;;;;;;;;;;;;;;;1.83;80.84;98945.09;4927730;29;19934;-81
2022/02/13 18:41:03;;;;;;;;;;;;;;;1.80;81.13;98935.53;4926546;29;19931;-81
2022/02/13 18:43:28;;;;;;;;;;;;;;;1.69;80.68;98937.53;4928854;29;19923;-82
2022/02/13 18:45:53;;;;;;;;;;;;;;;1.79;80.90;98937.31;4928539;29;20138;-81
2022/02/13 18:48:19;;;;;;;;;;;;;;;1.75;80.57;98950.47;4929267;29;19919;-81
2022/02/13 18:50:44;;;;;;;;;;;;;;;1.82;80.26;98936.41;4928142;29;20430;-81
2022/02/13 18:53:10;;;;;;;;;;;;;;;1.89;80.41;98937.97;4928318;29;20001;-81
2022/02/13 18:55:35;;;;;;;;;;;;;;;1.89;80.03;98932.75;4927768;29;19927;-81
2022/02/13 18:58:01;;;;;;;;;;;;;;;1.81;79.98;98921.59;4927223;29;19930;-81
2022/02/13 19:00:27;;;;;;;;;;;;;;;1.77;80.15;98914.72;4929162;29;19915;-81
2022/02/13 19:02:52;;;;;;;;;;;;;;;1.73;80.24;98918.28;4928493;29;19926;-81
2022/02/13 19:05:18;;;;;;;;;;;;;;;1.81;80.17;98911.16;4929690;29;19966;-81
2022/02/13 19:07:43;;;;;;;;;;;;;;;1.84;79.96;98912.84;4930709;29;19923;-80
2022/02/13 19:10:09;;;;;;;;;;;;;;;1.86;79.92;98911.91;4928530;29;20017;-82
2022/02/13 19:12:34;;;;;;;;;;;;;;;1.87;79.85;98915.38;4910201;29;19938;-81
2022/02/13 19:14:59;;;;;;;;;;;;;;;1.93;80.08;98908.28;4928650;29;19941;-81
2022/02/13 19:17:24;;;;;;;;;;;;;;;1.88;79.84;98912.72;4928228;29;19943;-81
2022/02/13 19:19:50;;;;;;;;;;;;;;;1.84;79.77;98921.53;4928834;29;19983;-81
2022/02/13 19:22:15;;;;;;;;;;;;;;;1.78;79.57;98922.50;4910660;29;19919;-81
2022/02/13 19:24:40;;;;;;;;;;;;;;;1.83;79.42;98918.97;4928485;29;19919;-81
2022/02/13 19:29:50;;;;;;;;;;;;;;;1.87;79.16;98911.03;4928560;29;19930;-80
2022/02/13 19:32:15;;;;;;;;;;;;;;;1.87;79.20;98912.75;4927785;29;20359;-81
2022/02/13 19:34:41;;;;;;;;;;;;;;;1.83;79.11;98908.50;4926790;29;19979;-81
2022/02/13 19:37:07;;;;;;;;;;;;;;;1.85;79.14;98904.97;4926835;29;19919;-80
2022/02/13 19:39:32;;;;;;;;;;;;;;;1.90;79.25;98887.44;4927150;29;19918;-81
2022/02/13 19:41:57;;;;;;;;;;;;;;;1.91;79.06;98888.28;4925446;29;19923;-81
2022/02/13 19:44:23;;;;;;;;;;;;;;;1.90;79.13;98882.22;4926664;29;19923;-81
2022/02/13 19:46:48;;;;;;;;;;;;;;;1.87;78.89;98892.75;4927346;29;19923;-81
2022/02/13 19:49:13;;;;;;;;;;;;;;;1.87;78.94;98890.13;4925375;29;20445;-81
2022/02/13 19:51:39;;;;;;;;;;;;;;;1.87;78.61;98884.03;4925978;29;19966;-81
2022/02/13 19:54:04;;;;;;;;;;;;;;;1.79;78.62;98876.38;4926928;29;19927;-81
2022/02/13 19:56:29;;;;;;;;;;;;;;;1.79;78.62;98871.16;4925723;29;20038;-83
2022/02/13 19:58:55;;;;;;;;;;;;;;;1.85;78.48;98871.03;4926878;29;19934;-81
2022/02/13 20:01:20;;;;;;;;;;;;;;;1.78;78.34;98864.19;4927292;29;19926;-82
2022/02/13 20:03:45;;;;;;;;;;;;;;;1.75;78.40;98865.09;4927067;29;19923;-81
2022/02/13 20:06:10;;;;;;;;;;;;;;;1.78;78.45;98866.81;4909343;29;20066;-81
2022/02/13 20:08:36;;;;;;;;;;;;;;;1.79;78.25;98869.38;4926569;29;19982;-81
2022/02/13 20:11:02;;;;;;;;;;;;;;;1.79;78.09;98855.47;4925309;29;19919;-81
2022/02/13 20:13:27;;;;;;;;;;;;;;;1.79;77.98;98858.09;4926641;29;19923;-81
2022/02/13 20:15:54;;;;;;;;;;;;;;;1.78;77.79;98853.75;4926336;29;20327;-81
2022/02/13 20:18:19;;;;;;;;;;;;;;;1.79;77.72;98850.25;4926410;29;19966;-81
2022/02/13 20:20:45;;;;;;;;;;;;;;;1.77;77.61;98846.78;4926157;29;19957;-81
2022/02/13 20:23:10;;;;;;;;;;;;;;;1.78;77.65;98848.53;4926725;29;19923;-81
2022/02/13 20:25:36;;;;;;;;;;;;;;;1.78;77.78;98849.38;4924692;29;19922;-81
2022/02/13 20:28:01;;;;;;;;;;;;;;;1.77;77.70;98846.78;4926253;29;19921;-81
2022/02/13 20:30:26;;;;;;;;;;;;;;;1.83;77.76;98851.03;4926376;29;19923;-82
2022/02/13 20:32:52;;;;;;;;;;;;;;;1.85;77.63;98855.34;4926165;29;19919;-81
2022/02/13 20:35:18;;;;;;;;;;;;;;;1.85;77.46;98849.25;4925528;29;20342;-81
2022/02/13 20:37:44;;;;;;;;;;;;;;;1.82;77.15;98852.81;4925953;29;19967;-81
2022/02/13 20:40:11;;;;;;;;;;;;;;;1.85;77.12;98847.50;4925642;29;19926;-81
2022/02/13 20:42:38;;;;;;;;;;;;;;;1.82;77.01;98844.97;4924993;29;19919;-81
2022/02/13 20:45:06;;;;;;;;;;;;;;;1.83;76.93;98846.66;4925754;29;19923;-81
2022/02/13 20:47:32;;;;;;;;;;;;;;;1.84;76.72;98835.34;4925986;29;19954;-81
2022/02/13 20:49:57;;;;;;;;;;;;;;;1.84;76.52;98842.31;4926574;29;19930;-81
2022/02/13 20:52:23;;;;;;;;;;;;;;;1.79;76.19;98839.81;4925656;29;19919;-81
2022/02/13 20:54:48;;;;;;;;;;;;;;;1.81;76.17;98832.78;4925322;29;20291;-81
2022/02/13 20:57:13;;;;;;;;;;;;;;;1.83;75.87;98831.00;4924587;29;19922;-81
2022/02/13 20:59:39;;;;;;;;;;;;;;;1.87;75.75;98826.53;4924363;29;19919;-81
2022/02/13 21:02:04;;;;;;;;;;;;;;;1.90;75.61;98822.13;4925219;29;19926;-82
2022/02/13 21:04:30;;;;;;;;;;;;;;;1.88;75.58;98826.50;4925841;29;20338;-81
2022/02/13 21:06:55;;;;;;;;;;;;;;;1.85;75.49;98818.78;4926411;29;19919;-81
2022/02/13 21:09:20;;;;;;;;;;;;;;;1.89;75.51;98817.78;4924128;29;19923;-81
2022/02/13 21:11:45;;;;;;;;;;;;;;;1.90;75.55;98811.69;4924263;29;19971;-81
2022/02/13 21:14:12;;;;;;;;;;;;;;;1.94;75.43;98804.63;4907883;29;20056;-81
2022/02/13 21:16:37;;;;;;;;;;;;;;;2.00;75.34;98809.72;4925670;29;19919;-81
2022/02/13 21:19:04;;;;;;;;;;;;;;;1.98;75.16;98801.06;4925091;29;19969;-81
2022/02/13 21:21:29;;;;;;;;;;;;;;;2.03;75.11;98806.13;4924641;29;19922;-81
2022/02/13 21:23:54;;;;;;;;;;;;;;;1.97;74.89;98805.41;4925275;29;20082;-81
2022/02/13 21:26:19;;;;;;;;;;;;;;;1.99;74.73;98800.13;4923534;29;20400;-81
2022/02/13 21:28:45;;;;;;;;;;;;;;;2.01;74.65;98803.59;4924840;29;19919;-81
2022/02/13 21:31:10;;;;;;;;;;;;;;;2.00;74.54;98802.72;4925310;29;20450;-81
2022/02/13 21:33:36;;;;;;;;;;;;;;;2.03;74.62;98801.81;4924905;29;20363;-81
2022/02/13 21:36:01;;;;;;;;;;;;;;;2.05;74.43;98804.38;4907830;29;19923;-81
2022/02/13 21:38:27;;;;;;;;;;;;;;;2.06;74.46;98801.72;4925047;29;20286;-81
2022/02/13 21:40:52;;;;;;;;;;;;;;;2.07;74.38;98797.34;4924066;29;19923;-81
2022/02/13 21:43:18;;;;;;;;;;;;;;;2.12;74.13;98798.09;4924458;29;19923;-80
2022/02/13 21:45:44;;;;;;;;;;;;;;;2.13;74.06;98786.75;4924662;29;19923;-81
2022/02/13 21:48:12;;;;;;;;;;;;;;;2.14;73.80;98791.09;4925363;29;19919;-81
2022/02/13 21:50:37;;;;;;;;;;;;;;;2.11;73.72;98789.41;4907772;29;20069;-81
2022/02/13 21:53:07;;;;;;;;;;;;;;;2.16;73.57;98784.06;4925355;29;20438;-81
2022/02/13 21:55:33;;;;;;;;;;;;;;;2.13;73.57;98782.38;4923137;29;19919;-81
2022/02/13 21:57:58;;;;;;;;;;;;;;;2.14;73.65;98778.03;4907594;29;19992;-81
2022/02/13 22:00:24;;;;;;;;;;;;;;;2.14;73.35;98780.63;4924842;29;19962;-81
2022/02/13 22:02:49;;;;;;;;;;;;;;;2.19;73.50;98773.53;4924496;29;19925;-81
2022/02/13 22:05:15;;;;;;;;;;;;;;;2.21;73.14;98784.81;4924321;29;19986;-81
2022/02/13 22:07:41;;;;;;;;;;;;;;;2.28;73.00;98764.59;4925140;29;19974;-81
2022/02/13 22:10:06;;;;;;;;;;;;;;;2.35;72.92;98764.41;4907115;29;20378;-81
2022/02/13 22:12:32;;;;;;;;;;;;;;;2.30;72.93;98762.81;4923063;29;19926;-81
2022/02/13 22:14:57;;;;;;;;;;;;;;;2.27;72.98;98765.50;4923467;29;19919;-82
2022/02/13 22:17:22;;;;;;;;;;;;;;;2.28;72.90;98760.25;4924617;29;19944;-81
2022/02/13 22:19:48;;;;;;;;;;;;;;;2.26;73.09;98766.38;4924456;29;19994;-81
2022/02/13 22:22:13;;;;;;;;;;;;;;;2.29;73.04;98767.16;4923905;29;20305;-81
2022/02/13 22:24:39;;;;;;;;;;;;;;;2.30;73.06;98765.44;4924368;29;20014;-81
2022/02/13 22:27:04;;;;;;;;;;;;;;;2.30;72.78;98763.66;4922905;29;19927;-82
2022/02/13 22:29:29;;;;;;;;;;;;;;;2.37;72.96;98764.34;4923903;29;20287;-82
2022/02/13 22:31:54;;;;;;;;;;;;;;;2.40;72.80;98764.28;4924441;29;19970;-81
2022/02/13 22:34:20;;;;;;;;;;;;;;;2.42;72.64;98761.63;4924394;29;20417;-81
2022/02/13 22:36:45;;;;;;;;;;;;;;;2.42;72.67;98772.09;4924061;29;20695;-81
2022/02/13 22:39:10;;;;;;;;;;;;;;;2.39;72.49;98772.16;4924028;29;19918;-81
2022/02/13 22:41:36;;;;;;;;;;;;;;;2.42;72.53;98759.84;4922508;29;20363;-81
2022/02/13 22:44:02;;;;;;;;;;;;;;;2.39;72.35;98751.25;4924198;29;19930;-81
2022/02/13 22:46:28;;;;;;;;;;;;;;;2.50;72.15;98754.44;4923078;29;20380;-82
2022/02/13 22:48:54;;;;;;;;;;;;;;;2.45;71.89;98741.47;4921393;29;19934;-82
2022/02/13 22:51:19;;;;;;;;;;;;;;;2.48;71.83;98740.56;4919616;29;20419;-82
2022/02/13 22:53:44;;;;;;;;;;;;;;;2.53;71.44;98736.06;4903815;29;19927;-81
2022/02/13 22:56:09;;;;;;;;;;;;;;;2.57;71.27;98735.09;4920496;29;19966;-88
2022/02/13 22:58:37;;;;;;;;;;;;;;;2.63;71.01;98728.81;4921634;29;19923;-87
2022/02/13 23:01:02;;;;;;;;;;;;;;;2.67;70.96;98733.91;4918862;29;20645;-81
2022/02/13 23:03:27;;;;;;;;;;;;;;;2.65;70.75;98727.88;4904477;29;20002;-81
2022/02/13 23:05:53;;;;;;;;;;;;;;;2.66;70.58;98729.56;4904677;29;20083;-83
2022/02/13 23:13:47;;;;;;;;;;;;;;;2.73;70.53;98710.22;4922895;29;19997;-88
2022/02/13 23:16:13;;;;;;;;;;;;;;;2.83;70.51;98709.94;4907709;29;20378;-83
2022/02/13 23:18:38;;;;;;;;;;;;;;;2.93;70.70;98713.16;4907207;29;19974;-82
2022/02/13 23:21:03;;;;;;;;;;;;;;;2.89;70.58;98721.09;4902508;29;19955;-81
2022/02/13 23:23:29;;;;;;;;;;;;;;;2.86;70.38;98709.88;4920303;29;19926;-81
2022/02/13 23:25:54;;;;;;;;;;;;;;;2.85;70.35;98713.38;4920719;29;20298;-84
2022/02/13 23:28:20;;;;;;;;;;;;;;;2.84;70.21;98709.91;4924431;29;20025;-84
2022/02/13 23:30:46;;;;;;;;;;;;;;;2.86;69.99;98705.47;4907895;29;19981;-82
2022/02/13 23:33:12;;;;;;;;;;;;;;;3.00;70.00;98697.25;4908230;29;19926;-88
2022/02/13 23:35:37;;;;;;;;;;;;;;;2.90;69.77;98707.13;4922303;29;20247;-81
2022/02/13 23:38:02;;;;;;;;;;;;;;;2.88;69.94;98710.66;4925046;29;20319;-86
2022/02/13 23:40:28;;;;;;;;;;;;;;;3.00;69.77;98701.59;4927966;29;19953;-81
2022/02/13 23:42:53;;;;;;;;;;;;;;;3.08;69.75;98700.47;4904336;29;20505;-83
2022/02/13 23:45:18;;;;;;;;;;;;;;;3.09;69.69;98686.50;4904184;29;19923;-83
2022/02/13 23:47:44;;;;;;;;;;;;;;;3.14;69.62;98688.09;4923564;29;19927;-83
2022/02/13 23:50:10;;;;;;;;;;;;;;;3.11;69.66;98677.72;4923819;29;19927;-83
2022/02/13 23:52:35;;;;;;;;;;;;;;;3.14;69.52;98680.25;4905167;29;20426;-82
2022/02/13 23:55:01;;;;;;;;;;;;;;;3.21;69.37;98673.94;4922634;29;19923;-81
2022/02/13 23:57:26;;;;;;;;;;;;;;;3.16;69.46;98674.09;4904534;29;20495;-83
2022/02/13 23:59:51;;;;;;;;;;;;;;;3.16;69.27;98671.47;4922431;29;19922;-86
